Time;durP1;ratioP1;P1;durP2;ratioP2;P2;SDS_P1;SDS_P2;PMS_P1;PMS_P2;Temp;Humidity;BMP_temperature;BMP_pressure;BME280_temperature;BME280_humidity;BME280_pressure;Samples;Min_cycle;Max_cycle;Signal;HPM_P1;HPM_P2
2021/01/31 00:01:10;;;;;;;3.65;2.67;;;;;;;;;;5096576;28;20035;-49
2021/01/31 00:03:36;;;;;;;3.78;2.45;;;;;;;;;;5096592;28;20028;-49
2021/01/31 00:06:04;;;;;;;4.53;2.85;;;;;;;;;;5096773;28;20015;-49
2021/01/31 00:08:30;;;;;;;4.63;2.80;;;;;;;;;;5096593;28;20024;-49
2021/01/31 00:10:57;;;;;;;3.85;2.63;;;;;;;;;;5097047;28;20081;-49
2021/01/31 00:13:24;;;;;;;3.83;3.00;;;;;;;;;;5095824;28;20030;-49
2021/01/31 00:15:51;;;;;;;5.78;3.53;;;;;;;;;;5096475;28;20032;-49
2021/01/31 00:18:18;;;;;;;3.33;2.80;;;;;;;;;;5096300;28;20111;-49
2021/01/31 00:20:46;;;;;;;3.63;2.92;;;;;;;;;;5096415;28;20028;-49
2021/01/31 00:23:12;;;;;;;4.50;3.00;;;;;;;;;;5095973;28;20032;-49
2021/01/31 00:25:38;;;;;;;6.35;3.33;;;;;;;;;;5096218;28;20024;-49
2021/01/31 00:28:05;;;;;;;4.50;3.45;;;;;;;;;;5095926;28;20028;-49
2021/01/31 00:30:32;;;;;;;4.70;3.60;;;;;;;;;;5096201;28;20024;-49
2021/01/31 00:32:59;;;;;;;4.35;2.88;;;;;;;;;;5095949;28;20306;-49
2021/01/31 00:35:26;;;;;;;5.32;3.60;;;;;;;;;;5096091;28;20475;-49
2021/01/31 00:37:53;;;;;;;3.78;3.00;;;;;;;;;;5095835;28;20065;-50
2021/01/31 00:40:19;;;;;;;6.10;3.25;;;;;;;;;;5095732;28;20043;-49
2021/01/31 00:42:45;;;;;;;4.57;3.47;;;;;;;;;;5095465;28;20035;-49
2021/01/31 00:45:13;;;;;;;5.97;4.00;;;;;;;;;;5095932;28;20020;-49
2021/01/31 00:47:40;;;;;;;4.00;2.95;;;;;;;;;;5095662;28;20028;-49
2021/01/31 00:50:06;;;;;;;4.03;3.20;;;;;;;;;;5096143;28;20024;-49
2021/01/31 00:52:32;;;;;;;4.57;2.95;;;;;;;;;;5095384;28;20024;-49
2021/01/31 00:54:58;;;;;;;5.40;3.90;;;;;;;;;;5095478;28;20027;-49
2021/01/31 00:57:24;;;;;;;7.20;3.17;;;;;;;;;;5094897;28;20087;-49
2021/01/31 00:59:50;;;;;;;4.05;2.92;;;;;;;;;;5095222;28;20056;-48
2021/01/31 01:02:19;;;;;;;5.00;3.05;;;;;;;;;;5095411;28;20032;-49
2021/01/31 01:04:46;;;;;;;3.92;2.60;;;;;;;;;;5095482;28;20412;-49
2021/01/31 01:07:12;;;;;;;4.40;2.90;;;;;;;;;;5095376;28;20030;-49
2021/01/31 01:09:38;;;;;;;4.60;2.58;;;;;;;;;;5095391;28;20418;-49
2021/01/31 01:12:05;;;;;;;3.85;2.72;;;;;;;;;;5095379;28;20100;-49
2021/01/31 01:14:31;;;;;;;4.05;3.00;;;;;;;;;;5095177;28;20020;-49
2021/01/31 01:16:58;;;;;;;3.53;2.45;;;;;;;;;;5095395;28;20049;-49
2021/01/31 01:19:25;;;;;;;4.10;3.10;;;;;;;;;;5094971;28;20487;-49
2021/01/31 01:21:51;;;;;;;3.78;3.05;;;;;;;;;;5095087;28;20092;-49
2021/01/31 01:24:17;;;;;;;4.53;2.85;;;;;;;;;;5094498;28;20043;-49
2021/01/31 01:26:43;;;;;;;5.43;2.78;;;;;;;;;;5095228;28;20020;-49
2021/01/31 01:29:09;;;;;;;4.47;3.08;;;;;;;;;;5094980;28;20024;-49
2021/01/31 01:31:35;;;;;;;2.97;2.53;;;;;;;;;;5095088;28;20025;-49
2021/01/31 01:34:01;;;;;;;3.63;2.60;;;;;;;;;;5094754;28;20112;-49
2021/01/31 01:36:27;;;;;;;3.83;2.88;;;;;;;;;;5094616;28;20056;-49
2021/01/31 01:38:53;;;;;;;3.83;2.72;;;;;;;;;;5094481;28;20032;-49
2021/01/31 01:41:19;;;;;;;3.60;2.60;;;;;;;;;;5094874;28;20024;-49
2021/01/31 01:43:45;;;;;;;4.45;3.00;;;;;;;;;;5094338;28;20495;-49
2021/01/31 01:46:23;;;;;;;5.03;3.35;;;;;;;;;;5094694;28;20028;-49
2021/01/31 01:48:54;;;;;;;7.40;3.40;;;;;;;;;;5094549;28;20044;-49
2021/01/31 01:51:26;;;;;;;3.47;2.78;;;;;;;;;;5094318;28;20024;-49
2021/01/31 01:53:52;;;;;;;4.45;2.60;;;;;;;;;;5094389;28;20085;-49
2021/01/31 01:56:21;;;;;;;3.03;2.70;;;;;;;;;;5094687;28;20024;-48
2021/01/31 01:58:47;;;;;;;4.65;3.15;;;;;;;;;;5091150;28;20332;-49
2021/01/31 02:01:14;;;;;;;4.15;2.90;;;;;;;;;;5093924;28;20039;-49
2021/01/31 02:03:42;;;;;;;4.28;2.85;;;;;;;;;;5093775;28;20035;-49
2021/01/31 02:06:16;;;;;;;4.72;3.28;;;;;;;;;;5094263;28;20350;-49
2021/01/31 02:08:42;;;;;;;4.95;2.45;;;;;;;;;;5094223;28;20343;-49
2021/01/31 02:11:08;;;;;;;3.60;2.75;;;;;;;;;;5093600;28;20402;-49
2021/01/31 02:13:36;;;;;;;3.72;2.75;;;;;;;;;;5093985;28;20046;-49
2021/01/31 02:16:03;;;;;;;3.30;2.88;;;;;;;;;;5094330;28;20024;-49
2021/01/31 02:18:34;;;;;;;6.05;3.17;;;;;;;;;;5094211;28;20028;-49
2021/01/31 02:21:06;;;;;;;3.90;2.42;;;;;;;;;;5093932;28;20509;-49
2021/01/31 02:23:41;;;;;;;4.65;2.72;;;;;;;;;;5093663;28;20111;-49
2021/01/31 02:26:12;;;;;;;3.53;2.72;;;;;;;;;;5093973;28;20024;-49
2021/01/31 02:28:38;;;;;;;6.20;2.90;;;;;;;;;;5094011;28;20028;-49
2021/01/31 02:31:10;;;;;;;6.10;2.92;;;;;;;;;;5093798;28;20030;-49
2021/01/31 02:33:46;;;;;;;4.18;2.72;;;;;;;;;;5093623;28;20069;-49
2021/01/31 02:36:32;;;;;;;4.90;2.95;;;;;;;;;;5093592;28;20020;-49
2021/01/31 02:39:01;;;;;;;4.60;2.70;;;;;;;;;;5093425;28;20452;-49
2021/01/31 02:41:44;;;;;;;3.90;3.28;;;;;;;;;;5091754;28;20127;-49
2021/01/31 02:44:12;;;;;;;7.07;3.20;;;;;;;;;;5073239;28;20362;-49
2021/01/31 02:46:41;;;;;;;4.20;2.80;;;;;;;;;;5072948;28;20027;-49
2021/01/31 02:49:26;;;;;;;4.55;3.28;;;;;;;;;;5073355;28;20374;-49
2021/01/31 02:52:08;;;;;;;4.03;2.50;;;;;;;;;;5073254;28;20024;-48
2021/01/31 02:54:40;;;;;;;4.72;3.20;;;;;;;;;;5073019;28;20469;-49
2021/01/31 02:57:25;;;;;;;5.90;3.20;;;;;;;;;;5072961;28;20872;-49
2021/01/31 02:59:55;;;;;;;6.25;3.58;;;;;;;;;;5073179;28;20024;-49
2021/01/31 03:02:27;;;;;;;5.88;3.70;;;;;;;;;;5073031;28;20059;-49
2021/01/31 03:04:59;;;;;;;5.45;3.50;;;;;;;;;;5072967;28;20350;-49
2021/01/31 03:07:26;;;;;;;4.68;3.40;;;;;;;;;;5092205;28;20020;-49
2021/01/31 03:09:56;;;;;;;5.53;3.45;;;;;;;;;;5093207;28;20417;-49
2021/01/31 03:12:24;;;;;;;4.88;3.42;;;;;;;;;;5093171;28;20115;-48
2021/01/31 03:15:00;;;;;;;5.28;3.22;;;;;;;;;;5093292;28;20039;-48
2021/01/31 03:17:52;;;;;;;3.33;2.67;;;;;;;;;;5093335;28;20024;-49
2021/01/31 03:20:19;;;;;;;4.22;3.53;;;;;;;;;;5092652;28;20052;-49
2021/01/31 03:22:48;;;;;;;5.65;3.22;;;;;;;;;;5096576;28;20028;-49
2021/01/31 03:25:18;;;;;;;4.57;3.50;;;;;;;;;;5097523;28;20421;-49
2021/01/31 03:27:44;;;;;;;6.47;3.00;;;;;;;;;;5092254;28;20214;-49
2021/01/31 03:30:11;;;;;;;6.28;3.00;;;;;;;;;;5097588;28;20019;-49
2021/01/31 03:33:01;;;;;;;4.65;2.63;;;;;;;;;;5097155;28;20016;-49
2021/01/31 03:35:41;;;;;;;4.25;2.78;;;;;;;;;;5095764;28;20047;-49
2021/01/31 03:38:21;;;;;;;5.85;2.88;;;;;;;;;;5096762;28;20020;-49
2021/01/31 03:40:51;;;;;;;2.90;2.45;;;;;;;;;;5097235;28;20032;-49
2021/01/31 03:43:18;;;;;;;3.45;2.70;;;;;;;;;;5096574;28;20028;-49
2021/01/31 03:46:03;;;;;;;4.03;3.15;;;;;;;;;;5097564;28;20032;-49
2021/01/31 03:48:31;;;;;;;3.75;2.85;;;;;;;;;;5096784;28;20392;-49
2021/01/31 03:50:57;;;;;;;3.45;3.03;;;;;;;;;;5097249;28;20422;-49
2021/01/31 03:53:23;;;;;;;4.28;3.10;;;;;;;;;;5096585;28;20466;-49
2021/01/31 03:55:50;;;;;;;3.92;2.63;;;;;;;;;;5096840;28;20135;-49
2021/01/31 03:58:19;;;;;;;4.55;2.72;;;;;;;;;;5096737;28;20024;-49
2021/01/31 04:00:49;;;;;;;3.33;2.80;;;;;;;;;;5096829;28;20021;-48
2021/01/31 04:03:17;;;;;;;6.50;3.15;;;;;;;;;;5095988;28;20036;-49
2021/01/31 04:05:55;;;;;;;4.60;3.20;;;;;;;;;;5096854;28;20023;-49
2021/01/31 04:08:21;;;;;;;3.95;2.80;;;;;;;;;;5096580;28;20024;-49
2021/01/31 04:10:47;;;;;;;3.75;2.47;;;;;;;;;;5096711;28;20112;-49
2021/01/31 04:13:13;;;;;;;4.38;3.35;;;;;;;;;;5096229;28;20464;-49
2021/01/31 04:15:41;;;;;;;5.88;3.17;;;;;;;;;;5096147;28;20028;-49
2021/01/31 04:18:08;;;;;;;3.45;2.67;;;;;;;;;;5096573;28;20141;-49
2021/01/31 04:20:35;;;;;;;5.32;3.28;;;;;;;;;;5096627;28;20036;-49
2021/01/31 04:23:01;;;;;;;3.92;3.00;;;;;;;;;;5096119;28;20035;-49
2021/01/31 04:25:27;;;;;;;4.70;3.05;;;;;;;;;;5096227;28;20070;-49
2021/01/31 04:27:54;;;;;;;5.43;3.03;;;;;;;;;;5096249;28;20119;-49
2021/01/31 04:30:20;;;;;;;3.83;2.95;;;;;;;;;;5095982;28;20042;-49
2021/01/31 04:32:46;;;;;;;4.68;3.45;;;;;;;;;;5095954;28;20031;-49
2021/01/31 04:35:12;;;;;;;3.78;2.92;;;;;;;;;;5096168;28;20024;-49
2021/01/31 04:37:38;;;;;;;4.32;3.10;;;;;;;;;;5096095;28;20396;-49
2021/01/31 04:40:09;;;;;;;3.38;2.50;;;;;;;;;;5096437;28;20036;-49
2021/01/31 04:42:35;;;;;;;4.43;2.38;;;;;;;;;;5095881;28;20040;-49
2021/01/31 04:45:01;;;;;;;3.95;2.63;;;;;;;;;;5095790;28;20024;-49
2021/01/31 04:47:37;;;;;;;3.38;2.45;;;;;;;;;;5095922;28;20028;-49
2021/01/31 04:50:15;;;;;;;3.97;2.40;;;;;;;;;;5095939;28;20020;-49
2021/01/31 04:52:44;;;;;;;2.85;2.17;;;;;;;;;;5095561;28;20027;-49
2021/01/31 04:55:29;;;;;;;3.85;2.60;;;;;;;;;;5095561;28;20020;-49
2021/01/31 04:57:55;;;;;;;4.25;3.05;;;;;;;;;;5095385;28;20039;-49
2021/01/31 05:00:25;;;;;;;4.90;3.33;;;;;;;;;;5095745;28;20024;-49
2021/01/31 05:02:52;;;;;;;5.68;3.17;;;;;;;;;;5095310;28;20035;-49
2021/01/31 05:05:21;;;;;;;4.40;2.80;;;;;;;;;;5095491;28;20035;-49
2021/01/31 05:07:53;;;;;;;5.20;3.63;;;;;;;;;;5095085;28;20069;-49
2021/01/31 05:10:19;;;;;;;4.60;2.78;;;;;;;;;;5095474;28;20429;-49
2021/01/31 05:12:45;;;;;;;3.65;2.70;;;;;;;;;;5095237;28;20024;-49
2021/01/31 05:15:11;;;;;;;5.15;3.40;;;;;;;;;;5095309;28;20414;-49
2021/01/31 05:17:38;;;;;;;3.95;2.92;;;;;;;;;;5095518;28;20430;-49
2021/01/31 05:20:06;;;;;;;11.55;3.10;;;;;;;;;;5095098;28;20339;-49
2021/01/31 05:22:34;;;;;;;5.03;3.08;;;;;;;;;;5095020;28;20040;-49
2021/01/31 05:25:00;;;;;;;5.35;3.70;;;;;;;;;;5094899;28;20070;-49
2021/01/31 05:27:31;;;;;;;4.53;3.30;;;;;;;;;;5095215;28;20024;-49
2021/01/31 05:29:57;;;;;;;7.00;4.13;;;;;;;;;;5095178;28;20020;-49
2021/01/31 05:32:23;;;;;;;4.15;2.95;;;;;;;;;;5094744;28;20028;-49
2021/01/31 05:34:51;;;;;;;5.68;3.25;;;;;;;;;;5094466;28;20111;-49
2021/01/31 05:37:19;;;;;;;5.75;3.40;;;;;;;;;;5095191;28;20051;-49
2021/01/31 05:39:45;;;;;;;7.80;4.07;;;;;;;;;;5094850;28;20028;-49
2021/01/31 05:42:12;;;;;;;7.20;3.45;;;;;;;;;;5093470;28;20039;-49
2021/01/31 05:44:39;;;;;;;6.57;3.40;;;;;;;;;;5093813;28;20031;-49
2021/01/31 05:47:15;;;;;;;6.95;3.83;;;;;;;;;;5094725;28;20031;-49
2021/01/31 05:49:45;;;;;;;5.72;3.45;;;;;;;;;;5094695;28;20109;-49
2021/01/31 05:52:20;;;;;;;5.72;4.25;;;;;;;;;;5094911;28;20024;-49
2021/01/31 05:54:47;;;;;;;7.40;4.03;;;;;;;;;;5094443;28;20024;-49
2021/01/31 05:57:25;;;;;;;4.03;3.33;;;;;;;;;;5094491;28;20460;-49
2021/01/31 05:59:51;;;;;;;6.30;4.00;;;;;;;;;;5094250;28;20107;-49
2021/01/31 06:02:35;;;;;;;5.45;2.83;;;;;;;;;;5093933;28;20369;-49
2021/01/31 06:05:13;;;;;;;5.57;3.67;;;;;;;;;;5094361;28;20024;-49
2021/01/31 06:07:40;;;;;;;4.82;3.42;;;;;;;;;;5074375;28;20034;-49
2021/01/31 06:10:11;;;;;;;8.20;4.43;;;;;;;;;;5073884;28;20365;-49
2021/01/31 06:12:38;;;;;;;9.00;4.00;;;;;;;;;;5074008;28;20028;-49
2021/01/31 06:15:04;;;;;;;6.72;3.92;;;;;;;;;;5074032;28;20106;-49
2021/01/31 06:17:30;;;;;;;5.80;3.13;;;;;;;;;;5073895;28;20043;-49
2021/01/31 06:20:02;;;;;;;6.75;3.65;;;;;;;;;;5073959;28;20048;-49
2021/01/31 06:22:41;;;;;;;5.82;4.50;;;;;;;;;;5073536;28;20408;-49
2021/01/31 06:25:08;;;;;;;7.28;4.00;;;;;;;;;;5073674;28;20441;-49
2021/01/31 06:27:36;;;;;;;5.28;3.80;;;;;;;;;;5073784;28;20437;-49
2021/01/31 06:30:06;;;;;;;7.03;4.03;;;;;;;;;;5073718;28;20055;-49
2021/01/31 06:32:33;;;;;;;6.63;4.38;;;;;;;;;;5077419;28;20070;-49
2021/01/31 06:35:01;;;;;;;7.90;3.60;;;;;;;;;;5089694;28;20024;-49
2021/01/31 06:37:27;;;;;;;6.18;3.40;;;;;;;;;;5092322;28;20032;-49
2021/01/31 06:39:59;;;;;;;8.02;4.60;;;;;;;;;;5090898;28;20024;-49
2021/01/31 06:42:44;;;;;;;6.82;4.25;;;;;;;;;;5090210;28;20585;-49
2021/01/31 06:45:18;;;;;;;6.38;4.38;;;;;;;;;;5091975;28;20453;-49
2021/01/31 06:47:57;;;;;;;7.32;4.55;;;;;;;;;;5089393;28;20077;-49
2021/01/31 06:50:23;;;;;;;9.13;4.72;;;;;;;;;;5085425;28;20077;-49
2021/01/31 06:52:57;;;;;;;11.38;4.72;;;;;;;;;;5089690;28;20020;-49
2021/01/31 06:55:29;;;;;;;7.13;4.28;;;;;;;;;;5088897;28;20031;-49
2021/01/31 06:58:04;;;;;;;8.02;4.88;;;;;;;;;;5089166;28;20024;-49
2021/01/31 07:00:39;;;;;;;9.48;4.78;;;;;;;;;;5088467;28;20099;-49
2021/01/31 07:03:05;;;;;;;7.32;4.68;;;;;;;;;;5089939;28;20035;-49
2021/01/31 07:05:50;;;;;;;6.93;4.40;;;;;;;;;;5091837;28;20030;-49
2021/01/31 07:08:51;;;;;;;8.48;5.20;;;;;;;;;;5091340;28;20028;-49
2021/01/31 07:11:32;;;;;;;8.40;4.55;;;;;;;;;;5089150;28;20032;-49
2021/01/31 07:13:58;;;;;;;6.53;4.13;;;;;;;;;;5090000;28;20063;-49
2021/01/31 07:16:30;;;;;;;7.22;4.63;;;;;;;;;;5090791;28;20458;-49
2021/01/31 07:19:00;;;;;;;10.63;5.18;;;;;;;;;;5090754;28;20138;-49
2021/01/31 07:21:53;;;;;;;9.98;4.45;;;;;;;;;;5091552;28;20031;-49
2021/01/31 07:24:27;;;;;;;8.57;4.78;;;;;;;;;;5091349;28;20468;-49
2021/01/31 07:26:53;;;;;;;8.50;5.25;;;;;;;;;;5092622;28;20438;-49
2021/01/31 07:29:24;;;;;;;7.35;4.50;;;;;;;;;;5091960;28;20062;-49
2021/01/31 07:31:51;;;;;;;7.68;5.05;;;;;;;;;;5088255;28;20028;-49
2021/01/31 07:34:37;;;;;;;8.27;4.88;;;;;;;;;;5080915;28;20040;-49
2021/01/31 07:37:11;;;;;;;7.00;4.32;;;;;;;;;;5084442;28;20472;-49
2021/01/31 07:39:37;;;;;;;10.27;4.82;;;;;;;;;;5090393;28;20070;-49
2021/01/31 07:42:03;;;;;;;13.57;5.07;;;;;;;;;;5085442;28;20040;-49
2021/01/31 07:44:32;;;;;;;8.63;5.30;;;;;;;;;;5087982;28;20028;-49
2021/01/31 07:46:59;;;;;;;8.57;5.07;;;;;;;;;;5090854;28;20097;-49
2021/01/31 07:49:25;;;;;;;9.05;4.68;;;;;;;;;;5091036;28;20445;-49
2021/01/31 07:51:57;;;;;;;9.00;4.80;;;;;;;;;;5090223;28;20046;-49
2021/01/31 07:54:23;;;;;;;9.32;5.38;;;;;;;;;;5090333;28;20406;-49
2021/01/31 07:56:53;;;;;;;8.25;4.93;;;;;;;;;;5090734;28;20450;-49
2021/01/31 07:59:22;;;;;;;8.55;5.13;;;;;;;;;;5088912;28;20016;-49
2021/01/31 08:01:52;;;;;;;11.73;4.93;;;;;;;;;;5091508;28;20036;-49
2021/01/31 08:04:18;;;;;;;9.07;4.97;;;;;;;;;;5092011;28;20047;-49
2021/01/31 08:06:46;;;;;;;7.82;5.07;;;;;;;;;;5091054;28;20445;-49
2021/01/31 08:09:34;;;;;;;9.00;5.03;;;;;;;;;;5095211;28;20035;-49
2021/01/31 08:12:03;;;;;;;11.02;6.05;;;;;;;;;;5093541;28;20077;-49
2021/01/31 08:14:48;;;;;;;11.00;5.70;;;;;;;;;;5092206;28;20056;-49
2021/01/31 08:17:34;;;;;;;9.18;5.35;;;;;;;;;;5093029;28;20021;-49
2021/01/31 08:20:18;;;;;;;8.98;5.53;;;;;;;;;;5093441;28;20147;-49
2021/01/31 08:22:44;;;;;;;7.68;5.03;;;;;;;;;;5093271;28;20044;-49
2021/01/31 08:25:11;;;;;;;7.75;4.97;;;;;;;;;;5093944;28;20044;-49
2021/01/31 08:27:42;;;;;;;11.63;5.93;;;;;;;;;;5093285;28;20048;-49
2021/01/31 08:30:27;;;;;;;14.93;6.85;;;;;;;;;;5093929;28;20413;-49
2021/01/31 08:33:02;;;;;;;10.82;5.50;;;;;;;;;;5087289;28;20351;-49
2021/01/31 08:35:31;;;;;;;9.70;5.40;;;;;;;;;;5093352;28;20021;-49
2021/01/31 08:38:15;;;;;;;11.10;5.78;;;;;;;;;;5094325;28;20023;-50
2021/01/31 08:40:49;;;;;;;16.30;6.05;;;;;;;;;;5093637;28;20032;-49
2021/01/31 08:43:26;;;;;;;11.68;6.50;;;;;;;;;;5093742;28;20032;-49
2021/01/31 08:45:52;;;;;;;10.05;5.70;;;;;;;;;;5091302;28;20024;-49
2021/01/31 08:48:25;;;;;;;12.52;6.05;;;;;;;;;;5093667;28;20028;-49
2021/01/31 08:51:04;;;;;;;10.57;5.93;;;;;;;;;;5094881;28;20081;-49
2021/01/31 08:53:30;;;;;;;12.70;6.72;;;;;;;;;;5090843;28;20059;-49
2021/01/31 08:56:12;;;;;;;12.23;6.05;;;;;;;;;;5091216;28;20026;-49
2021/01/31 08:58:39;;;;;;;10.05;5.70;;;;;;;;;;5093215;28;20020;-49
2021/01/31 09:01:06;;;;;;;10.85;6.40;;;;;;;;;;5089267;28;20119;-49
2021/01/31 09:03:33;;;;;;;10.80;6.18;;;;;;;;;;5093440;28;20028;-49
2021/01/31 09:05:59;;;;;;;13.13;7.22;;;;;;;;;;5092769;28;20097;-48
2021/01/31 09:08:25;;;;;;;13.80;6.53;;;;;;;;;;5093813;28;20031;-48
2021/01/31 09:10:52;;;;;;;12.05;7.35;;;;;;;;;;5093441;28;20051;-49
2021/01/31 09:13:29;;;;;;;13.85;5.95;;;;;;;;;;5082108;28;20035;-48
2021/01/31 09:16:09;;;;;;;12.35;6.38;;;;;;;;;;5080972;28;20033;-48
2021/01/31 09:18:35;;;;;;;10.52;6.65;;;;;;;;;;5092475;28;20016;-48
2021/01/31 09:21:17;;;;;;;15.27;7.15;;;;;;;;;;5093721;28;20055;-48
2021/01/31 09:23:43;;;;;;;13.85;6.70;;;;;;;;;;5095002;28;20100;-48
2021/01/31 09:26:10;;;;;;;13.82;7.18;;;;;;;;;;5094827;28;20024;-48
2021/01/31 09:28:39;;;;;;;11.45;6.72;;;;;;;;;;5092750;28;20031;-48
2021/01/31 09:31:05;;;;;;;13.80;6.97;;;;;;;;;;5095100;28;20081;-48
2021/01/31 09:33:37;;;;;;;12.65;6.38;;;;;;;;;;5094478;28;20107;-48
2021/01/31 09:36:16;;;;;;;12.27;6.18;;;;;;;;;;5091275;28;20025;-48
2021/01/31 09:38:42;;;;;;;14.45;6.43;;;;;;;;;;5087255;28;20044;-48
2021/01/31 09:41:08;;;;;;;10.10;6.32;;;;;;;;;;5094501;28;20032;-48
2021/01/31 09:43:35;;;;;;;16.58;7.38;;;;;;;;;;5094432;28;20112;-48
2021/01/31 09:46:03;;;;;;;12.98;7.30;;;;;;;;;;5075902;28;20025;-48
2021/01/31 09:48:31;;;;;;;14.73;6.10;;;;;;;;;;5076069;28;20020;-48
2021/01/31 09:50:58;;;;;;;11.77;7.10;;;;;;;;;;5092774;28;20438;-48
2021/01/31 09:53:27;;;;;;;15.63;5.90;;;;;;;;;;5084490;28;20226;-48
2021/01/31 09:55:54;;;;;;;19.15;7.60;;;;;;;;;;5073894;28;20024;-48
2021/01/31 09:58:22;;;;;;;15.15;7.50;;;;;;;;;;5093964;28;20099;-48
2021/01/31 10:00:49;;;;;;;16.00;7.75;;;;;;;;;;5094027;28;20437;-48
2021/01/31 10:03:31;;;;;;;15.85;8.43;;;;;;;;;;5093868;28;20127;-48
2021/01/31 10:06:03;;;;;;;15.68;7.15;;;;;;;;;;5092196;28;20055;-48
2021/01/31 10:08:29;;;;;;;15.75;7.03;;;;;;;;;;5093016;28;20028;-48
2021/01/31 10:10:55;;;;;;;14.98;7.05;;;;;;;;;;5093529;28;20077;-48
2021/01/31 10:13:33;;;;;;;12.38;6.78;;;;;;;;;;5092888;28;20042;-48
2021/01/31 10:16:01;;;;;;;16.42;8.32;;;;;;;;;;5093122;28;20031;-48
2021/01/31 10:18:30;;;;;;;17.17;7.03;;;;;;;;;;5092798;28;20050;-48
2021/01/31 10:21:28;;;;;;;17.17;7.40;;;;;;;;;;5090241;28;20038;-48
2021/01/31 10:24:00;;;;;;;14.27;7.47;;;;;;;;;;5087191;28;20032;-48
2021/01/31 10:26:26;;;;;;;11.88;5.82;;;;;;;;;;5090260;28;20085;-48
2021/01/31 10:29:03;;;;;;;19.33;8.38;;;;;;;;;;5073004;28;20358;-48
2021/01/31 10:31:34;;;;;;;12.90;7.18;;;;;;;;;;5089949;28;20032;-48
2021/01/31 10:34:01;;;;;;;16.33;8.48;;;;;;;;;;5089871;28;20554;-48
2021/01/31 10:36:30;;;;;;;18.90;7.18;;;;;;;;;;5090079;28;20032;-49
2021/01/31 10:38:57;;;;;;;15.50;8.55;;;;;;;;;;5090154;28;20035;-48
2021/01/31 10:41:24;;;;;;;23.65;7.82;;;;;;;;;;5089938;28;20121;-48
2021/01/31 10:43:54;;;;;;;19.40;8.52;;;;;;;;;;5090247;28;20032;-48
2021/01/31 10:46:20;;;;;;;17.77;8.48;;;;;;;;;;5089797;28;20035;-48
2021/01/31 10:48:46;;;;;;;17.83;8.38;;;;;;;;;;5090402;28;20445;-48
2021/01/31 10:51:12;;;;;;;14.65;7.13;;;;;;;;;;5090430;28;20123;-48
2021/01/31 10:53:38;;;;;;;13.27;7.05;;;;;;;;;;5089521;28;20028;-48
2021/01/31 10:56:05;;;;;;;15.38;7.45;;;;;;;;;;5089485;28;20031;-48
2021/01/31 10:58:31;;;;;;;21.98;9.32;;;;;;;;;;5090172;28;20109;-48
2021/01/31 11:00:57;;;;;;;14.25;7.70;;;;;;;;;;5091775;28;20422;-48
2021/01/31 11:03:23;;;;;;;18.20;8.93;;;;;;;;;;5091965;28;20396;-48
2021/01/31 11:05:50;;;;;;;15.80;8.43;;;;;;;;;;5092247;28;20016;-48
2021/01/31 11:08:16;;;;;;;17.70;8.35;;;;;;;;;;5092984;28;20032;-48
2021/01/31 11:10:42;;;;;;;17.88;9.27;;;;;;;;;;5091631;28;20019;-48
2021/01/31 11:13:08;;;;;;;17.20;7.82;;;;;;;;;;5092814;28;20024;-48
2021/01/31 11:15:34;;;;;;;22.80;9.68;;;;;;;;;;5093238;28;20028;-48
2021/01/31 11:18:00;;;;;;;15.52;8.30;;;;;;;;;;5093066;28;20024;-49
2021/01/31 11:20:26;;;;;;;17.08;8.48;;;;;;;;;;5090690;28;20481;-48
2021/01/31 11:22:52;;;;;;;23.60;9.25;;;;;;;;;;5088657;28;20032;-48
2021/01/31 11:25:18;;;;;;;15.48;9.15;;;;;;;;;;5091040;28;20021;-48
2021/01/31 11:27:44;;;;;;;19.40;9.05;;;;;;;;;;5092311;28;20441;-48
2021/01/31 11:30:10;;;;;;;17.60;8.65;;;;;;;;;;5089931;28;20020;-48
2021/01/31 11:32:36;;;;;;;16.83;8.70;;;;;;;;;;5077992;28;20028;-49
2021/01/31 11:35:02;;;;;;;17.42;8.35;;;;;;;;;;5072390;28;20107;-48
2021/01/31 11:37:28;;;;;;;24.55;10.05;;;;;;;;;;5072329;28;20476;-48
2021/01/31 11:39:54;;;;;;;21.70;10.32;;;;;;;;;;5072826;28;20127;-48
2021/01/31 11:42:20;;;;;;;17.48;9.23;;;;;;;;;;5073605;28;20112;-48
2021/01/31 11:44:46;;;;;;;15.93;7.80;;;;;;;;;;5087395;28;20440;-48
2021/01/31 11:47:12;;;;;;;19.75;8.93;;;;;;;;;;5096954;28;20028;-48
2021/01/31 11:49:38;;;;;;;16.98;8.25;;;;;;;;;;5097032;28;20020;-48
2021/01/31 11:52:04;;;;;;;20.35;8.88;;;;;;;;;;5096769;28;20353;-48
2021/01/31 11:54:30;;;;;;;16.73;8.40;;;;;;;;;;5095953;28;20361;-48
2021/01/31 11:56:56;;;;;;;23.25;8.82;;;;;;;;;;5096897;28;20017;-48
2021/01/31 11:59:22;;;;;;;23.85;10.93;;;;;;;;;;5097032;28;20020;-48
2021/01/31 12:01:48;;;;;;;18.20;7.70;;;;;;;;;;5096876;28;20028;-48
2021/01/31 12:04:14;;;;;;;15.27;7.38;;;;;;;;;;5096341;28;20441;-48
2021/01/31 12:06:40;;;;;;;19.90;8.88;;;;;;;;;;5096438;28;20017;-48
2021/01/31 12:09:06;;;;;;;16.02;7.90;;;;;;;;;;5096716;28;20446;-48
2021/01/31 12:11:32;;;;;;;20.45;8.88;;;;;;;;;;5096842;28;20024;-48
2021/01/31 12:13:58;;;;;;;15.18;7.82;;;;;;;;;;5095856;28;20024;-48
2021/01/31 12:16:25;;;;;;;20.50;8.45;;;;;;;;;;5096184;28;20390;-48
2021/01/31 12:18:51;;;;;;;25.42;9.07;;;;;;;;;;5096462;28;20036;-48
2021/01/31 12:21:17;;;;;;;17.85;7.93;;;;;;;;;;5095867;28;20169;-48
2021/01/31 12:23:43;;;;;;;23.55;11.10;;;;;;;;;;5095864;28;20047;-48
2021/01/31 12:26:09;;;;;;;19.52;9.18;;;;;;;;;;5096282;28;20028;-48
2021/01/31 12:28:35;;;;;;;19.20;8.15;;;;;;;;;;5096381;28;20058;-48
2021/01/31 12:31:01;;;;;;;21.05;9.73;;;;;;;;;;5096313;28;20358;-48
2021/01/31 12:33:27;;;;;;;24.30;11.25;;;;;;;;;;5096142;28;20028;-48
2021/01/31 12:35:53;;;;;;;17.73;8.52;;;;;;;;;;5095512;28;20026;-48
2021/01/31 12:38:19;;;;;;;20.88;8.30;;;;;;;;;;5095805;28;20032;-49
2021/01/31 12:40:45;;;;;;;19.48;8.60;;;;;;;;;;5096005;28;20035;-48
2021/01/31 12:43:12;;;;;;;19.48;8.88;;;;;;;;;;5095799;28;20085;-48
2021/01/31 12:45:38;;;;;;;18.70;9.30;;;;;;;;;;5095793;28;20020;-48
2021/01/31 12:48:04;;;;;;;15.68;7.03;;;;;;;;;;5095928;28;20024;-48
2021/01/31 12:50:31;;;;;;;19.10;8.75;;;;;;;;;;5095142;28;20016;-48
2021/01/31 12:52:58;;;;;;;18.75;8.60;;;;;;;;;;5095595;28;20028;-48
2021/01/31 12:55:24;;;;;;;20.02;8.30;;;;;;;;;;5094160;28;20024;-48
2021/01/31 12:57:50;;;;;;;18.77;8.60;;;;;;;;;;5095429;28;20021;-48
2021/01/31 13:00:18;;;;;;;18.10;9.48;;;;;;;;;;5095466;28;20027;-48
2021/01/31 13:02:44;;;;;;;21.55;9.07;;;;;;;;;;5095454;28;20040;-48
2021/01/31 13:05:11;;;;;;;18.42;8.77;;;;;;;;;;5094911;28;20099;-48
2021/01/31 13:07:37;;;;;;;20.45;9.15;;;;;;;;;;5095733;28;20024;-48
2021/01/31 13:10:06;;;;;;;18.60;8.80;;;;;;;;;;5095468;28;20016;-48
2021/01/31 13:12:32;;;;;;;19.77;9.30;;;;;;;;;;5095498;28;20027;-48
2021/01/31 13:14:58;;;;;;;24.70;9.98;;;;;;;;;;5094590;28;20103;-48
2021/01/31 13:17:24;;;;;;;19.67;9.32;;;;;;;;;;5095391;28;20115;-48
2021/01/31 13:19:51;;;;;;;19.10;9.70;;;;;;;;;;5094934;28;20024;-48
2021/01/31 13:22:17;;;;;;;18.92;9.20;;;;;;;;;;5094930;28;20043;-48
2021/01/31 13:24:43;;;;;;;23.23;11.45;;;;;;;;;;5095127;28;20121;-48
2021/01/31 13:27:10;;;;;;;24.33;11.50;;;;;;;;;;5095030;28;20357;-48
2021/01/31 13:29:36;;;;;;;29.10;10.30;;;;;;;;;;5095070;28;20024;-48
2021/01/31 13:32:02;;;;;;;17.30;8.23;;;;;;;;;;5094971;28;20023;-48
2021/01/31 13:34:30;;;;;;;18.45;8.13;;;;;;;;;;5094052;28;20031;-48
2021/01/31 13:36:56;;;;;;;23.40;10.43;;;;;;;;;;5094571;28;20024;-48
2021/01/31 13:39:22;;;;;;;17.00;8.18;;;;;;;;;;5094595;28;20441;-48
2021/01/31 13:41:48;;;;;;;16.50;8.55;;;;;;;;;;5094683;28;20022;-48
2021/01/31 13:44:14;;;;;;;23.05;8.27;;;;;;;;;;5088330;28;20025;-48
2021/01/31 13:46:40;;;;;;;19.60;8.32;;;;;;;;;;5074155;28;20045;-48
2021/01/31 13:49:07;;;;;;;19.40;9.02;;;;;;;;;;5074353;28;20075;-48
2021/01/31 13:51:32;;;;;;;15.52;7.90;;;;;;;;;;5074753;28;20415;-47
2021/01/31 13:53:59;;;;;;;17.42;7.97;;;;;;;;;;5073740;28;20454;-48
2021/01/31 13:56:24;;;;;;;20.45;8.50;;;;;;;;;;5074175;28;20016;-48
2021/01/31 13:58:50;;;;;;;15.38;7.25;;;;;;;;;;5074053;28;20020;-48
2021/01/31 14:01:16;;;;;;;13.27;7.15;;;;;;;;;;5073915;28;20465;-48
2021/01/31 14:03:42;;;;;;;14.93;7.35;;;;;;;;;;5073518;28;20598;-48
2021/01/31 14:06:09;;;;;;;13.63;6.38;;;;;;;;;;5082354;28;20028;-48
2021/01/31 14:08:35;;;;;;;18.02;7.57;;;;;;;;;;5094033;28;20437;-48
2021/01/31 14:11:01;;;;;;;18.38;8.43;;;;;;;;;;5093952;28;20066;-48
2021/01/31 14:13:27;;;;;;;22.52;6.95;;;;;;;;;;5094001;28;20031;-48
2021/01/31 14:15:53;;;;;;;22.45;8.10;;;;;;;;;;5093107;28;20024;-48
2021/01/31 14:18:19;;;;;;;14.07;6.93;;;;;;;;;;5094100;28;20050;-48
2021/01/31 14:20:45;;;;;;;16.90;7.50;;;;;;;;;;5093777;28;20027;-48
2021/01/31 14:23:11;;;;;;;18.98;8.15;;;;;;;;;;5093412;28;20142;-48
2021/01/31 14:25:37;;;;;;;21.75;8.65;;;;;;;;;;5093382;28;20020;-48
2021/01/31 14:28:03;;;;;;;14.73;7.30;;;;;;;;;;5093646;28;20505;-48
2021/01/31 14:30:29;;;;;;;17.33;7.53;;;;;;;;;;5093691;28;20027;-48
2021/01/31 14:32:55;;;;;;;18.77;7.85;;;;;;;;;;5093790;28;20058;-48
2021/01/31 14:35:23;;;;;;;17.15;8.43;;;;;;;;;;5092254;28;20032;-48
2021/01/31 14:37:49;;;;;;;18.90;9.18;;;;;;;;;;5092693;28;20426;-47
2021/01/31 14:40:16;;;;;;;14.93;7.20;;;;;;;;;;5093391;28;20377;-50
2021/01/31 14:42:42;;;;;;;15.38;7.05;;;;;;;;;;5093349;28;20059;-49
2021/01/31 14:45:11;;;;;;;16.92;6.93;;;;;;;;;;5093362;28;20044;-49
2021/01/31 14:47:37;;;;;;;16.15;7.20;;;;;;;;;;5093329;28;20058;-49